Time;durP1;ratioP1;P1;durP2;ratioP2;P2;SDS_P1;SDS_P2;PMS_P1;PMS_P2;Temp;Humidity;BMP_temperature;BMP_pressure;BME280_temperature;BME280_humidity;BME280_pressure;Samples;Min_cycle;Max_cycle;Signal;HPM_P1;HPM_P2
2022/12/24 00:00:36;;;;;;;62.90;37.88;;;10.40;93.60;;;;;;6310767;22;20006;-89
2022/12/24 00:03:02;;;;;;;58.55;36.95;;;10.40;93.30;;;;;;6312988;22;20087;-85
2022/12/24 00:05:27;;;;;;;58.90;37.20;;;10.40;93.50;;;;;;6343737;22;19999;-92
2022/12/24 00:07:53;;;;;;;53.85;35.67;;;10.40;93.30;;;;;;6316810;22;19999;-92
2022/12/24 00:10:19;;;;;;;58.15;35.92;;;10.40;93.50;;;;;;6312977;22;20009;-92
2022/12/24 00:12:45;;;;;;;60.03;37.17;;;10.50;93.40;;;;;;6340723;22;20005;-93
2022/12/24 00:15:10;;;;;;;56.13;37.38;;;10.40;93.30;;;;;;6312369;22;20448;-94
2022/12/24 00:17:36;;;;;;;63.75;40.10;;;10.40;93.50;;;;;;6310833;22;20002;-88
2022/12/24 00:20:03;;;;;;;61.42;37.13;;;10.30;93.20;;;;;;6337939;22;20010;-89
2022/12/24 00:22:29;;;;;;;58.55;37.20;;;10.40;93.60;;;;;;6310626;22;20007;-88
2022/12/24 00:24:54;;;;;;;58.65;36.53;;;10.30;93.60;;;;;;6341089;22;19999;-91
2022/12/24 00:27:20;;;;;;;62.30;39.15;;;10.30;93.60;;;;;;6341072;22;20077;-90
2022/12/24 00:29:46;;;;;;;59.35;38.28;;;;;;;;;;6311921;22;20013;-92
2022/12/24 00:32:13;;;;;;;56.75;36.75;;;;;;;;;;6311266;22;20033;-91
2022/12/24 00:34:39;;;;;;;58.83;38.03;;;10.40;93.30;;;;;;6311350;22;20007;-92
2022/12/24 00:37:05;;;;;;;62.60;37.80;;;10.50;93.40;;;;;;6311200;22;20056;-90
2022/12/24 00:39:31;;;;;;;64.10;39.92;;;10.50;93.40;;;;;;6338935;22;19999;-90
2022/12/24 00:41:57;;;;;;;68.63;41.35;;;10.50;93.40;;;;;;6338839;22;20014;-91
2022/12/24 00:44:23;;;;;;;62.42;39.85;;;10.50;93.30;;;;;;6338748;22;20006;-90
2022/12/24 00:46:49;;;;;;;55.97;36.72;;;10.40;93.10;;;;;;6311094;22;20333;-91
2022/12/24 00:49:14;;;;;;;62.38;40.30;;;10.40;93.30;;;;;;6338813;22;19999;-91
2022/12/24 00:51:40;;;;;;;72.13;44.03;;;10.30;93.40;;;;;;6338795;22;20075;-90
2022/12/24 00:54:06;;;;;;;57.88;39.28;;;10.30;93.30;;;;;;6311079;22;20002;-90
2022/12/24 00:56:32;;;;;;;61.90;38.10;;;10.30;93.50;;;;;;6338085;22;20002;-89
2022/12/24 00:58:58;;;;;;;59.53;39.00;;;10.30;93.50;;;;;;6338062;22;20009;-90
2022/12/24 01:01:24;;;;;;;64.68;40.97;;;10.20;93.30;;;;;;6334873;22;20380;-92
2022/12/24 01:03:50;;;;;;;62.53;39.60;;;10.30;93.60;;;;;;6310192;22;20371;-92
2022/12/24 01:06:19;;;;;;;59.25;38.33;;;10.30;93.60;;;;;;6337954;22;20024;-92
2022/12/24 01:08:48;;;;;;;60.40;39.90;;;10.30;93.60;;;;;;6337939;22;20070;-94
2022/12/24 01:11:14;;;;;;;65.95;39.45;;;10.40;93.50;;;;;;6337182;22;20021;-88
2022/12/24 01:13:40;;;;;;;62.80;38.65;;;10.40;93.50;;;;;;6336923;22;20433;-88
2022/12/24 01:16:18;;;;;;;64.43;40.45;;;10.40;93.50;;;;;;6337668;22;20424;-90
2022/12/24 01:18:44;;;;;;;59.30;38.33;;;10.40;93.40;;;;;;6333274;22;20010;-90
2022/12/24 01:21:09;;;;;;;58.05;37.33;;;10.40;93.40;;;;;;6336712;22;19999;-93
2022/12/24 01:23:35;;;;;;;58.20;38.22;;;10.40;93.40;;;;;;6337255;22;20006;-90
2022/12/24 01:26:03;;;;;;;62.03;38.70;;;10.40;93.30;;;;;;6337684;22;19999;-90
2022/12/24 01:28:30;;;;;;;61.45;37.45;;;10.40;93.30;;;;;;6309837;22;20010;-90
2022/12/24 01:30:56;;;;;;;63.45;38.58;;;10.50;93.30;;;;;;6337385;22;20078;-90
2022/12/24 01:33:21;;;;;;;59.88;37.40;;;10.40;93.10;;;;;;6310795;22;20066;-89
2022/12/24 01:35:47;;;;;;;59.28;37.30;;;10.40;93.30;;;;;;6339441;22;20325;-89
2022/12/24 01:38:13;;;;;;;59.72;38.25;;;10.40;93.20;;;;;;6311487;22;20447;-88
2022/12/24 01:43:27;;;;;;;56.95;37.92;;;10.40;93.20;;;;;;6340183;22;20040;-94
2022/12/24 01:46:02;;;;;;;59.50;38.05;;;10.40;93.20;;;;;;6340132;22;20052;-93
2022/12/24 01:48:41;;;;;;;60.33;38.67;;;10.40;93.40;;;;;;6340521;22;20443;-93
2022/12/24 01:51:16;;;;;;;56.22;36.40;;;10.40;93.20;;;;;;6340832;22;20475;-92
2022/12/24 01:53:46;;;;;;;61.63;39.10;;;10.40;93.10;;;;;;6313491;22;20007;-92
2022/12/24 01:56:13;;;;;;;58.67;36.95;;;10.40;93.10;;;;;;6340542;22;20006;-92
2022/12/24 01:58:40;;;;;;;58.25;36.28;;;10.30;93.10;;;;;;6312297;22;20009;-91
2022/12/24 02:01:06;;;;;;;59.78;36.72;;;10.30;93.10;;;;;;6340709;22;20409;-92
2022/12/24 02:03:32;;;;;;;62.50;40.90;;;10.20;92.90;;;;;;6312392;22;20007;-90
2022/12/24 02:05:59;;;;;;;58.25;36.58;;;10.20;93.10;;;;;;6340322;22;20021;-90
2022/12/24 02:08:38;;;;;;;59.33;39.17;;;10.20;93.20;;;;;;6340346;22;20078;-90
2022/12/24 02:11:12;;;;;;;68.55;43.08;;;10.10;93.30;;;;;;6313055;22;20006;-91
2022/12/24 02:13:39;;;;;;;61.65;40.65;;;10.10;93.20;;;;;;6313663;22;20002;-90
2022/12/24 02:16:28;;;;;;;69.40;43.42;;;10.00;93.30;;;;;;6340366;22;20055;-90
2022/12/24 02:19:45;;;;;;;68.65;41.65;;;10.00;93.40;;;;;;6340421;22;20007;-94
2022/12/24 02:22:20;;;;;;;67.93;41.67;;;9.90;93.50;;;;;;6312030;22;20336;-91
2022/12/24 02:25:04;;;;;;;66.15;41.25;;;9.90;93.60;;;;;;6341427;22;20069;-90
2022/12/24 02:27:42;;;;;;;64.00;42.20;;;9.80;93.60;;;;;;6344853;22;20002;-89
2022/12/24 02:30:34;;;;;;;67.32;43.70;;;9.80;93.60;;;;;;6315857;22;19999;-91
2022/12/24 02:33:27;;;;;;;71.05;45.80;;;9.80;93.70;;;;;;6343283;22;20015;-91
2022/12/24 02:36:19;;;;;;;62.97;40.60;;;9.70;93.80;;;;;;6328475;22;20015;-91
2022/12/24 02:38:57;;;;;;;66.75;41.35;;;9.60;93.90;;;;;;6322744;22;20010;-91
2022/12/24 02:42:04;;;;;;;64.60;41.35;;;9.60;93.80;;;;;;6313885;22;20006;-90
2022/12/24 02:44:23;;;;;;;63.70;41.35;;;9.60;94.00;;;;;;6343502;22;20023;-90
2022/12/24 02:46:50;;;;;;;68.22;42.85;;;9.60;94.00;;;;;;6314249;22;20025;-91
2022/12/24 02:49:16;;;;;;;68.05;40.85;;;9.60;94.00;;;;;;6314473;22;20011;-92
2022/12/24 02:51:41;;;;;;;64.32;41.03;;;9.50;93.80;;;;;;6315871;22;20002;-91
2022/12/24 02:54:07;;;;;;;62.60;42.17;;;9.60;93.90;;;;;;6316677;22;20333;-91
2022/12/24 02:56:33;;;;;;;64.28;44.50;;;9.70;93.90;;;;;;6314205;22;20002;-90
2022/12/24 02:59:19;;;;;;;70.00;45.45;;;9.70;94.00;;;;;;6340053;22;19998;-90
2022/12/24 03:02:03;;;;;;;71.28;46.08;;;9.70;93.70;;;;;;6311618;22;20006;-90
2022/12/24 03:04:56;;;;;;;62.53;40.80;;;9.70;93.70;;;;;;6311683;22;20098;-89
2022/12/24 03:07:41;;;;;;;63.03;41.08;;;9.70;93.70;;;;;;6338582;22;20007;-92
2022/12/24 03:10:33;;;;;;;65.75;42.65;;;9.70;93.60;;;;;;6312281;22;20488;-90
2022/12/24 03:13:09;;;;;;;69.95;43.58;;;9.70;93.70;;;;;;6339278;22;20014;-89
2022/12/24 03:15:37;;;;;;;69.72;43.80;;;9.70;93.70;;;;;;6339404;22;19994;-90
2022/12/24 03:18:06;;;;;;;62.60;41.58;;;9.60;93.70;;;;;;6312075;22;20417;-89
2022/12/24 03:20:45;;;;;;;66.70;42.47;;;9.70;93.90;;;;;;6309301;22;20886;-87
2022/12/24 03:23:12;;;;;;;62.22;41.47;;;9.70;94.00;;;;;;6310319;22;20017;-90
2022/12/24 03:25:40;;;;;;;66.45;42.80;;;9.70;93.90;;;;;;6310660;22;20007;-93
2022/12/24 03:28:08;;;;;;;67.75;44.45;;;9.80;93.90;;;;;;6312761;22;19998;-95
2022/12/24 03:30:34;;;;;;;63.95;41.35;;;9.70;93.80;;;;;;6311281;22;20445;-90
2022/12/24 03:33:00;;;;;;;62.28;40.33;;;9.70;93.80;;;;;;6338245;22;20041;-91
2022/12/24 03:35:26;;;;;;;61.80;40.72;;;9.70;93.90;;;;;;6310778;22;20003;-91
2022/12/24 03:37:52;;;;;;;66.05;42.55;;;9.70;93.90;;;;;;6308832;22;20010;-90
2022/12/24 03:40:18;;;;;;;69.47;43.88;;;9.70;93.90;;;;;;6338203;22;20035;-90
2022/12/24 03:42:43;;;;;;;61.17;41.35;;;9.80;94.00;;;;;;6310937;22;20011;-88
2022/12/24 03:45:09;;;;;;;68.00;41.10;;;9.80;93.70;;;;;;6338094;22;20044;-89
2022/12/24 03:47:35;;;;;;;67.47;41.30;;;9.80;94.00;;;;;;6337830;22;19998;-88
2022/12/24 03:50:01;;;;;;;66.53;41.90;;;9.80;94.00;;;;;;6338850;22;20073;-89
2022/12/24 03:52:27;;;;;;;64.30;42.40;;;9.80;94.00;;;;;;6338542;22;20003;-89
2022/12/24 03:54:53;;;;;;;57.10;39.90;;;9.80;93.90;;;;;;6311099;22;20007;-88
2022/12/24 03:57:18;;;;;;;62.95;39.95;;;9.80;93.90;;;;;;6338136;22;20013;-89
2022/12/24 03:59:44;;;;;;;65.90;40.63;;;9.80;93.90;;;;;;6338074;22;20447;-88
2022/12/24 04:02:10;;;;;;;61.35;42.20;;;9.90;93.70;;;;;;6336284;22;20009;-87
2022/12/24 04:04:36;;;;;;;64.57;41.58;;;9.90;93.90;;;;;;6337559;22;19999;-87
2022/12/24 04:07:03;;;;;;;63.83;41.03;;;9.90;93.70;;;;;;6337028;22;20002;-87
2022/12/24 04:09:29;;;;;;;61.35;41.47;;;9.90;93.90;;;;;;6337464;22;20003;-87
2022/12/24 04:11:54;;;;;;;73.18;46.15;;;9.90;93.80;;;;;;6337585;22;20076;-88
2022/12/24 04:14:20;;;;;;;69.93;42.47;;;9.90;93.80;;;;;;6338082;22;19994;-87
2022/12/24 04:16:46;;;;;;;66.18;42.90;;;9.90;93.90;;;;;;6338051;22;20003;-87
2022/12/24 04:19:15;;;;;;;61.60;40.50;;;9.90;93.90;;;;;;6337992;22;19998;-88
2022/12/24 04:21:41;;;;;;;73.18;48.03;;;9.90;93.90;;;;;;6309634;22;20359;-85
2022/12/24 04:24:07;;;;;;;58.95;38.58;;;9.80;93.90;;;;;;6338478;22;20014;-85
2022/12/24 04:26:33;;;;;;;68.60;43.55;;;9.70;94.10;;;;;;6336979;22;20061;-84
2022/12/24 04:28:58;;;;;;;60.47;40.25;;;9.70;94.20;;;;;;6332586;22;19995;-85
2022/12/24 04:31:24;;;;;;;58.85;38.85;;;9.70;94.30;;;;;;6336118;22;20431;-85
2022/12/24 04:33:51;;;;;;;62.13;41.80;;;9.60;94.10;;;;;;6336418;22;20337;-88
2022/12/24 04:36:20;;;;;;;61.65;40.30;;;9.70;94.20;;;;;;6338041;22;20074;-91
2022/12/24 04:38:47;;;;;;;60.13;41.28;;;9.70;94.20;;;;;;6310230;22;20010;-92
2022/12/24 04:41:16;;;;;;;64.82;42.60;;;9.70;94.20;;;;;;6311027;22;20007;-89
2022/12/24 04:43:41;;;;;;;60.38;38.88;;;9.70;94.20;;;;;;6338427;22;20014;-90
2022/12/24 04:46:17;;;;;;;64.75;40.95;;;9.80;94.10;;;;;;6310584;22;20353;-89
2022/12/24 04:48:44;;;;;;;70.72;44.90;;;9.80;94.00;;;;;;6311190;22;20371;-92
2022/12/24 04:51:10;;;;;;;60.42;39.65;;;9.80;94.00;;;;;;6338930;22;19998;-92
2022/12/24 04:53:37;;;;;;;61.47;40.38;;;;;;;;;;6339735;22;20052;-92
2022/12/24 04:56:06;;;;;;;60.88;40.83;;;9.70;94.10;;;;;;6311410;22;20006;-90
2022/12/24 04:58:32;;;;;;;53.80;37.38;;;9.70;94.10;;;;;;6337769;22;20527;-89
2022/12/24 05:01:03;;;;;;;57.05;38.75;;;9.70;94.40;;;;;;6337663;22;20018;-89
2022/12/24 05:03:29;;;;;;;73.65;47.25;;;9.60;94.40;;;;;;6337908;22;20060;-89
2022/12/24 05:06:01;;;;;;;55.15;37.72;;;9.50;94.50;;;;;;6336965;22;19998;-89
2022/12/24 05:08:26;;;;;;;63.67;41.38;;;9.40;95.10;;;;;;6338689;22;20002;-87
2022/12/24 05:10:56;;;;;;;61.85;39.55;;;9.50;94.70;;;;;;6339746;22;19999;-87
2022/12/24 05:13:22;;;;;;;65.38;40.75;;;9.50;94.70;;;;;;6338828;22;20006;-87
2022/12/24 05:15:48;;;;;;;58.35;38.63;;;9.50;94.70;;;;;;6338853;22;20074;-87
2022/12/24 05:18:14;;;;;;;61.92;39.95;;;9.60;94.70;;;;;;6307053;22;20017;-88
2022/12/24 05:20:42;;;;;;;65.93;40.58;;;9.70;94.60;;;;;;6339887;22;20013;-88
2022/12/24 05:26:44;;;;;;;61.22;38.38;;;9.80;94.40;;;;;;6338730;22;20013;-90
2022/12/24 05:29:13;;;;;;;57.65;36.88;;;9.90;94.40;;;;;;6338571;22;20002;-86
2022/12/24 05:31:41;;;;;;;60.30;39.47;;;9.80;94.40;;;;;;6338879;22;20048;-88
2022/12/24 05:34:07;;;;;;;58.40;39.67;;;9.80;94.50;;;;;;6339396;22;20002;-88
2022/12/24 05:36:32;;;;;;;72.15;45.80;;;9.80;94.50;;;;;;6338669;22;20067;-87
2022/12/24 05:38:58;;;;;;;57.45;39.25;;;9.80;94.80;;;;;;6337613;22;20013;-87
2022/12/24 05:41:24;;;;;;;62.08;40.78;;;9.70;94.70;;;;;;6338867;22;20082;-86
2022/12/24 05:43:50;;;;;;;66.72;42.47;;;9.70;94.70;;;;;;6339867;22;20007;-87
2022/12/24 05:46:18;;;;;;;77.75;40.30;;;9.60;95.10;;;;;;6339094;22;19998;-87
2022/12/24 05:48:45;;;;;;;57.28;37.95;;;9.60;95.10;;;;;;6339978;22;19999;-87
2022/12/24 05:51:13;;;;;;;59.35;40.63;;;9.60;95.10;;;;;;6340493;22;19994;-88
2022/12/24 05:53:39;;;;;;;58.35;37.88;;;9.70;94.80;;;;;;6339758;22;20002;-88
2022/12/24 05:56:08;;;;;;;60.80;38.35;;;9.70;95.00;;;;;;6338730;22;20003;-88
2022/12/24 05:58:34;;;;;;;59.72;37.85;;;9.80;94.80;;;;;;6338390;22;20007;-88
2022/12/24 06:01:02;;;;;;;59.58;38.72;;;9.90;95.00;;;;;;6339180;22;19999;-90
2022/12/24 06:03:29;;;;;;;58.42;37.38;;;9.90;94.90;;;;;;6311850;22;20011;-87
2022/12/24 06:06:18;;;;;;;59.63;39.78;;;10.00;94.90;;;;;;6340110;22;20002;-88
2022/12/24 06:08:44;;;;;;;58.33;37.35;;;10.10;94.80;;;;;;6312634;22;20429;-87
2022/12/24 06:11:16;;;;;;;59.67;36.38;;;10.10;94.80;;;;;;6340478;22;19995;-90
2022/12/24 06:13:42;;;;;;;54.35;36.63;;;10.10;94.70;;;;;;6339740;22;19999;-88
2022/12/24 06:16:11;;;;;;;58.25;38.30;;;10.10;94.50;;;;;;6311701;22;20007;-89
2022/12/24 06:18:46;;;;;;;55.25;37.50;;;10.20;94.50;;;;;;6339619;22;20006;-92
2022/12/24 06:21:15;;;;;;;61.13;37.65;;;10.20;94.50;;;;;;6339875;22;20030;-91
2022/12/24 06:23:43;;;;;;;55.97;36.67;;;10.20;94.50;;;;;;6339940;22;19999;-91
2022/12/24 06:29:46;;;;;;;58.35;37.33;;;10.20;94.70;;;;;;6338939;22;20051;-74
2022/12/24 06:32:12;;;;;;;63.30;39.33;;;10.20;94.70;;;;;;6334460;22;20006;-83
2022/12/24 06:34:37;;;;;;;60.38;40.25;;;10.20;94.70;;;;;;6335265;22;19995;-85
2022/12/24 06:37:04;;;;;;;55.83;37.08;;;10.20;94.70;;;;;;6338805;22;20006;-83
2022/12/24 06:39:31;;;;;;;59.10;38.25;;;10.20;94.80;;;;;;6339116;22;19995;-84
2022/12/24 06:41:57;;;;;;;61.97;38.72;;;10.20;94.80;;;;;;6337640;22;20420;-84
2022/12/24 06:44:23;;;;;;;60.38;39.67;;;10.20;94.90;;;;;;6337344;22;20006;-85
2022/12/24 06:46:49;;;;;;;55.28;37.13;;;10.10;94.80;;;;;;6337917;22;20447;-81
2022/12/24 06:49:15;;;;;;;58.80;38.70;;;10.10;94.90;;;;;;6337835;22;19999;-81
2022/12/24 06:51:41;;;;;;;55.00;36.42;;;10.10;94.90;;;;;;6337212;22;20425;-80
2022/12/24 06:54:06;;;;;;;54.85;37.67;;;10.10;94.90;;;;;;6338665;22;20010;-81
2022/12/24 06:56:32;;;;;;;57.85;36.15;;;10.10;94.90;;;;;;6338537;22;20367;-80
2022/12/24 06:58:58;;;;;;;55.25;37.42;;;10.10;95.00;;;;;;6339139;22;19999;-81
2022/12/24 07:01:28;;;;;;;57.08;37.15;;;10.10;95.00;;;;;;6334154;22;20396;-81
2022/12/24 07:03:54;;;;;;;59.88;38.25;;;10.10;95.00;;;;;;6307519;22;20094;-82
2022/12/24 07:06:25;;;;;;;53.42;36.08;;;10.10;95.00;;;;;;6336389;22;20022;-73
2022/12/24 07:08:51;;;;;;;59.05;36.15;;;10.10;95.00;;;;;;6308098;22;20010;-72
2022/12/24 07:11:17;;;;;;;68.65;40.35;;;10.10;95.00;;;;;;6336902;22;20003;-75
2022/12/24 07:13:43;;;;;;;51.85;33.40;;;10.10;95.00;;;;;;6336589;22;20007;-77
2022/12/24 07:16:08;;;;;;;59.17;37.03;;;10.30;96.00;;;;;;6337084;22;20300;-73
2022/12/24 07:18:34;;;;;;;58.47;36.83;;;10.30;95.50;;;;;;6336705;22;20007;-72
2022/12/24 07:21:06;;;;;;;52.80;35.88;;;10.30;95.30;;;;;;6335964;22;20023;-73
2022/12/24 07:23:32;;;;;;;58.67;36.72;;;10.30;95.20;;;;;;6308790;22;20055;-73
2022/12/24 07:26:00;;;;;;;62.65;39.08;;;10.30;95.10;;;;;;6335076;22;19998;-81
2022/12/24 07:28:26;;;;;;;58.90;38.90;;;10.20;95.00;;;;;;6337811;22;20011;-81
2022/12/24 07:30:52;;;;;;;58.85;37.38;;;10.20;95.00;;;;;;6301148;22;20113;-81
2022/12/24 07:33:49;;;;;;;59.78;38.88;;;10.20;95.00;;;;;;6334530;22;20078;-80
2022/12/24 07:36:19;;;;;;;62.17;38.63;;;10.10;95.00;;;;;;6283246;22;20010;-81
2022/12/24 07:38:45;;;;;;;73.88;44.47;;;10.10;95.00;;;;;;6335289;22;20010;-81
2022/12/24 07:41:14;;;;;;;61.20;39.35;;;10.10;94.90;;;;;;6334661;22;20401;-81
2022/12/24 07:43:41;;;;;;;58.78;37.13;;;10.00;95.10;;;;;;6337466;22;20085;-88
2022/12/24 07:46:09;;;;;;;57.25;37.30;;;10.00;95.40;;;;;;6336697;22;19999;-71
2022/12/24 07:48:34;;;;;;;60.33;37.63;;;10.00;95.20;;;;;;6337417;22;20313;-76
2022/12/24 07:51:00;;;;;;;56.60;37.15;;;10.10;95.20;;;;;;6337771;22;19995;-92
2022/12/24 07:53:27;;;;;;;56.22;37.80;;;10.10;95.10;;;;;;6310166;22;20048;-82
2022/12/24 07:55:53;;;;;;;55.58;36.70;;;10.00;95.10;;;;;;6335696;22;20007;-83
2022/12/24 07:58:20;;;;;;;57.63;37.20;;;10.10;95.10;;;;;;6335222;22;20665;-75
2022/12/24 08:00:45;;;;;;;61.67;39.08;;;10.10;95.10;;;;;;6334105;22;20003;-75
2022/12/24 08:03:19;;;;;;;54.75;37.25;;;10.10;95.00;;;;;;6305333;22;20007;-82
2022/12/24 08:05:47;;;;;;;57.40;37.63;;;10.10;95.10;;;;;;6335699;22;20010;-75
2022/12/24 08:08:14;;;;;;;55.55;36.30;;;10.10;95.20;;;;;;6337164;22;20026;-75
2022/12/24 08:10:44;;;;;;;56.30;38.10;;;10.10;95.20;;;;;;6333847;22;19999;-75
2022/12/24 08:13:10;;;;;;;;;;;10.20;95.20;;;;;;6339299;22;20007;-75
2022/12/24 08:15:35;;;;;;;53.92;35.35;;;10.20;94.90;;;;;;6307920;22;19905;-79
2022/12/24 08:18:02;;;;;;;56.38;37.13;;;10.30;95.00;;;;;;6335635;22;20007;-81
2022/12/24 08:20:28;;;;;;;60.15;37.58;;;10.30;95.00;;;;;;6337070;22;20002;-81
2022/12/24 08:22:54;;;;;;;61.80;38.75;;;10.30;94.90;;;;;;6337531;22;20431;-81
2022/12/24 08:25:19;;;;;;;56.85;36.45;;;10.40;94.90;;;;;;6337127;22;19999;-82
2022/12/24 08:27:45;;;;;;;57.72;35.70;;;10.40;94.90;;;;;;6336951;22;20095;-82
2022/12/24 08:30:12;;;;;;;53.15;35.90;;;10.40;94.90;;;;;;6309219;22;20006;-76
2022/12/24 08:32:39;;;;;;;59.92;37.08;;;10.40;94.70;;;;;;6336149;22;20026;-75
2022/12/24 08:35:05;;;;;;;57.55;36.63;;;10.40;94.90;;;;;;6336181;22;20061;-76
2022/12/24 08:37:31;;;;;;;53.63;34.53;;;10.50;95.00;;;;;;6336628;22;20011;-76
2022/12/24 08:39:56;;;;;;;62.40;37.72;;;10.50;94.90;;;;;;6337698;22;20034;-75
2022/12/24 08:42:23;;;;;;;52.92;35.00;;;10.50;94.80;;;;;;6308206;22;20006;-80
2022/12/24 08:44:49;;;;;;;55.85;34.65;;;10.60;94.70;;;;;;6337066;22;20702;-78
2022/12/24 08:47:14;;;;;;;54.33;35.33;;;10.60;94.70;;;;;;6336740;22;20002;-75
2022/12/24 08:49:40;;;;;;;58.67;37.22;;;10.60;94.60;;;;;;6337298;22;19994;-75
2022/12/24 08:52:06;;;;;;;60.90;36.40;;;10.70;94.60;;;;;;6336261;22;20010;-81
2022/12/24 08:54:31;;;;;;;58.17;36.50;;;10.70;94.50;;;;;;6307690;22;20013;-80
2022/12/24 08:56:57;;;;;;;55.00;34.72;;;10.70;94.50;;;;;;6337384;22;20037;-80
2022/12/24 08:59:23;;;;;;;57.17;36.53;;;10.70;94.40;;;;;;6335869;22;20003;-80
2022/12/24 09:01:52;;;;;;;64.70;38.25;;;10.70;94.60;;;;;;6337546;22;20068;-80
2022/12/24 09:04:19;;;;;;;53.38;33.67;;;10.70;94.40;;;;;;6308049;22;20014;-73
2022/12/24 09:06:45;;;;;;;52.10;32.42;;;10.60;94.20;;;;;;6309488;22;20086;-73
2022/12/24 09:09:10;;;;;;;53.72;30.95;;;10.60;94.40;;;;;;6308837;22;20374;-75
2022/12/24 09:11:36;;;;;;;45.75;28.77;;;10.60;94.60;;;;;;6337644;22;20120;-75
2022/12/24 09:14:02;;;;;;;47.67;30.17;;;10.60;94.40;;;;;;6335721;22;20144;-75
2022/12/24 09:16:27;;;;;;;46.97;30.10;;;10.60;94.40;;;;;;6335220;22;20409;-76
2022/12/24 09:18:53;;;;;;;49.92;30.90;;;10.70;94.30;;;;;;6336840;22;20761;-75
2022/12/24 09:21:19;;;;;;;45.38;30.00;;;10.70;94.20;;;;;;6336730;22;20347;-76
2022/12/24 09:23:46;;;;;;;50.72;30.98;;;10.70;94.00;;;;;;6307575;22;20085;-75
2022/12/24 09:26:22;;;;;;;52.78;29.85;;;10.70;94.00;;;;;;6334851;22;20401;-80
2022/12/24 09:28:48;;;;;;;46.10;30.00;;;10.80;94.00;;;;;;6336660;22;20061;-80
2022/12/24 09:31:15;;;;;;;45.40;29.85;;;10.80;94.00;;;;;;6337579;22;20052;-80
2022/12/24 09:33:42;;;;;;;45.10;28.20;;;10.80;94.20;;;;;;6336754;22;19999;-80
2022/12/24 09:36:08;;;;;;;42.20;27.90;;;10.90;93.80;;;;;;6336828;22;20023;-81
2022/12/24 09:38:34;;;;;;;40.33;26.17;;;10.90;93.70;;;;;;6335388;22;20055;-79
2022/12/24 09:41:01;;;;;;;40.28;26.75;;;10.90;93.50;;;;;;6334883;22;20003;-79
2022/12/24 09:43:32;;;;;;;39.78;26.75;;;10.90;93.50;;;;;;6304384;22;20007;-76
2022/12/24 09:45:57;;;;;;;40.95;26.80;;;10.90;93.50;;;;;;6335726;22;20002;-79
2022/12/24 09:48:28;;;;;;;40.15;26.33;;;11.00;93.40;;;;;;6336135;22;20473;-80
2022/12/24 09:50:56;;;;;;;38.22;25.60;;;11.10;93.30;;;;;;6335629;22;19995;-80
2022/12/24 09:53:38;;;;;;;39.83;25.17;;;11.10;93.20;;;;;;6337615;22;20439;-80
2022/12/24 09:56:14;;;;;;;36.83;24.65;;;11.10;93.20;;;;;;6338507;22;20026;-81
2022/12/24 09:58:44;;;;;;;36.45;24.90;;;11.10;93.00;;;;;;6336750;22;20128;-83
2022/12/24 10:01:15;;;;;;;38.80;27.08;;;11.10;92.60;;;;;;6337621;22;20055;-82
2022/12/24 10:03:42;;;;;;;40.17;27.10;;;11.10;92.60;;;;;;6337299;22;20005;-83
2022/12/24 10:06:16;;;;;;;49.88;29.38;;;11.00;92.40;;;;;;6338451;22;19994;-83
2022/12/24 10:08:57;;;;;;;38.72;26.15;;;10.90;92.40;;;;;;6338392;22;19995;-82
2022/12/24 10:11:43;;;;;;;;;;;10.90;92.70;;;;;;6337498;22;20002;-83
2022/12/24 10:14:46;;;;;;;36.45;24.20;;;10.90;92.80;;;;;;6275947;22;20219;-86
2022/12/24 10:17:48;;;;;;;42.83;25.63;;;11.00;93.10;;;;;;6337829;22;20125;-76
2022/12/24 10:20:21;;;;;;;37.65;25.08;;;11.00;93.00;;;;;;6311302;22;20003;-77
2022/12/24 10:23:04;;;;;;;39.65;25.58;;;11.00;92.80;;;;;;6338998;22;20006;-78
2022/12/24 10:26:02;;;;;;;38.42;25.30;;;11.00;92.70;;;;;;6339374;22;20056;-87
2022/12/24 10:28:47;;;;;;;33.90;22.77;;;11.00;92.40;;;;;;6332532;22;20015;-87
2022/12/24 10:31:13;;;;;;;36.65;24.05;;;11.00;92.70;;;;;;6338191;22;19999;-88
2022/12/24 10:33:45;;;;;;;40.15;25.50;;;11.10;92.70;;;;;;6337153;22;20007;-77
2022/12/24 10:36:26;;;;;;;37.75;24.83;;;11.10;92.60;;;;;;6337941;22;19999;-87
2022/12/24 10:38:52;;;;;;;39.50;25.00;;;11.20;92.60;;;;;;6338707;22;20051;-88
2022/12/24 10:41:18;;;;;;;37.78;25.88;;;11.20;92.50;;;;;;6338548;22;20002;-78
2022/12/24 10:43:46;;;;;;;36.85;25.30;;;11.20;92.70;;;;;;6338369;22;20028;-78
2022/12/24 10:46:30;;;;;;;39.17;26.25;;;11.30;92.30;;;;;;6339019;22;19995;-84
2022/12/24 10:49:02;;;;;;;43.92;28.67;;;11.30;92.20;;;;;;6339777;22;19995;-86
2022/12/24 10:51:47;;;;;;;45.03;28.85;;;11.10;91.50;;;;;;6311263;22;20003;-86
2022/12/24 10:54:27;;;;;;;35.45;23.40;;;11.00;91.80;;;;;;6308139;22;20010;-78
2022/12/24 10:56:58;;;;;;;33.63;23.73;;;11.00;92.10;;;;;;6307961;22;20011;-78
2022/12/24 10:59:37;;;;;;;33.95;23.77;;;11.10;92.20;;;;;;6336654;22;20009;-78
2022/12/24 11:02:27;;;;;;;34.63;25.02;;;11.20;92.30;;;;;;6338194;22;20005;-78
2022/12/24 11:04:53;;;;;;;34.20;24.08;;;11.20;92.20;;;;;;6336534;22;20772;-78
2022/12/24 11:07:22;;;;;;;37.90;24.50;;;11.30;92.20;;;;;;6337210;22;20034;-78
2022/12/24 11:09:57;;;;;;;41.72;24.15;;;11.50;92.20;;;;;;6337779;22;20009;-79
2022/12/24 11:12:28;;;;;;;37.55;24.80;;;11.50;92.00;;;;;;6336698;22;19999;-78
2022/12/24 11:15:16;;;;;;;35.80;24.88;;;11.60;91.80;;;;;;6337217;22;20077;-77
2022/12/24 11:17:51;;;;;;;40.25;25.73;;;11.60;91.70;;;;;;6337650;22;20313;-78
2022/12/24 11:20:25;;;;;;;36.67;24.48;;;11.60;91.70;;;;;;6309085;22;19999;-78
2022/12/24 11:22:50;;;;;;;39.88;23.92;;;11.70;91.70;;;;;;6336991;22;20029;-86
2022/12/24 11:25:27;;;;;;;41.28;27.45;;;11.70;91.60;;;;;;6311668;22;20375;-87
2022/12/24 11:27:54;;;;;;;42.35;26.80;;;11.80;91.50;;;;;;6338731;22;20017;-86
2022/12/24 11:30:25;;;;;;;40.00;27.27;;;11.70;91.30;;;;;;6338974;22;20074;-77
2022/12/24 11:33:00;;;;;;;39.67;25.92;;;11.70;91.30;;;;;;6309270;22;20006;-77
2022/12/24 11:35:28;;;;;;;40.90;26.00;;;11.70;91.40;;;;;;6338644;22;20002;-87
2022/12/24 11:38:00;;;;;;;40.53;27.50;;;11.70;91.50;;;;;;6337704;22;20006;-87
2022/12/24 11:40:34;;;;;;;37.88;26.27;;;11.70;91.50;;;;;;6339605;22;20060;-87
2022/12/24 11:43:01;;;;;;;44.50;28.67;;;11.80;91.50;;;;;;6337353;22;20002;-84
2022/12/24 11:45:29;;;;;;;41.50;27.40;;;11.80;91.50;;;;;;6338105;22;19999;-83
2022/12/24 11:47:56;;;;;;;39.80;28.23;;;11.90;91.50;;;;;;6337071;22;19994;-84
2022/12/24 11:50:28;;;;;;;43.25;29.13;;;11.90;91.50;;;;;;6338257;22;20030;-84
2022/12/24 11:53:02;;;;;;;43.30;28.10;;;11.90;91.50;;;;;;6337494;22;20365;-82
2022/12/24 11:55:48;;;;;;;47.47;29.50;;;12.00;91.50;;;;;;6337901;22;19998;-83
2022/12/24 11:58:22;;;;;;;41.65;27.63;;;12.00;91.40;;;;;;6337775;22;20006;-82
2022/12/24 12:00:50;;;;;;;43.72;29.45;;;12.00;91.30;;;;;;6337692;22;20379;-81
2022/12/24 12:03:36;;;;;;;47.17;29.95;;;12.00;91.20;;;;;;6337099;22;20003;-81
2022/12/24 12:06:10;;;;;;;40.45;27.92;;;12.00;91.20;;;;;;6338168;22;20006;-81
2022/12/24 12:08:37;;;;;;;41.35;29.90;;;12.00;91.30;;;;;;6301185;22;20324;-81
2022/12/24 12:11:10;;;;;;;42.92;28.17;;;12.00;91.40;;;;;;6336069;22;20003;-81
2022/12/24 12:13:38;;;;;;;44.50;28.65;;;12.00;91.30;;;;;;6336332;22;20003;-89
2022/12/24 12:16:25;;;;;;;45.97;28.60;;;12.00;91.40;;;;;;6337921;22;20002;-81
2022/12/24 12:19:03;;;;;;;42.72;30.27;;;12.00;91.30;;;;;;6336761;22;20375;-79
2022/12/24 12:21:39;;;;;;;40.45;28.48;;;12.00;91.40;;;;;;6335435;22;20325;-80
2022/12/24 12:24:23;;;;;;;41.20;28.80;;;12.10;91.50;;;;;;6337546;22;20006;-79
2022/12/24 12:27:03;;;;;;;44.38;30.58;;;12.00;91.40;;;;;;6338137;22;20429;-73
2022/12/24 12:29:32;;;;;;;46.50;29.35;;;12.00;91.40;;;;;;6336924;22;19999;-73
2022/12/24 12:32:15;;;;;;;45.45;30.10;;;12.10;91.50;;;;;;6337141;22;20018;-73
2022/12/24 12:34:50;;;;;;;45.88;29.58;;;12.00;91.40;;;;;;6337737;22;20472;-73
2022/12/24 12:37:31;;;;;;;46.17;30.75;;;12.10;91.50;;;;;;6337521;22;20006;-73
2022/12/24 12:39:57;;;;;;;47.03;30.10;;;12.10;91.40;;;;;;6337725;22;20347;-74
2022/12/24 12:42:36;;;;;;;46.33;31.38;;;12.10;91.40;;;;;;6336494;22;19999;-75
2022/12/24 12:45:20;;;;;;;44.65;29.00;;;12.10;91.40;;;;;;6306312;22;20003;-77
2022/12/24 12:48:14;;;;;;;49.65;31.33;;;12.10;91.40;;;;;;6332726;22;20003;-80
2022/12/24 12:50:51;;;;;;;43.25;28.17;;;12.10;91.40;;;;;;6334617;22;19995;-74
2022/12/24 12:53:37;;;;;;;47.83;29.98;;;12.10;91.50;;;;;;6333119;22;20079;-75
2022/12/24 12:56:31;;;;;;;46.13;30.15;;;12.10;91.50;;;;;;6335300;22;19999;-82